Time,TemperatureF,DewpointF,PressureIn,WindDirection,WindDirectionDegrees,WindSpeedMPH,WindSpeedGustMPH,Humidity,HourlyPrecipIn,Conditions,Clouds,dailyrainin,SoftwareType,DateUTC
2013-07-16 00:00:00,73.1,66.9,30.20,SSE,166,0.0,8.0,81,0.00,,,0.00,Wunderground v.1.15,2013-07-16 05:00:00,
2013-07-16 00:05:00,72.9,67.1,30.20,SSE,166,0.0,8.0,82,0.00,,,0.00,Wunderground v.1.15,2013-07-16 05:05:00,
2013-07-16 00:10:00,72.6,66.8,30.20,SSE,166,0.0,8.0,82,0.00,,,0.00,Wunderground v.1.15,2013-07-16 05:10:00,
2013-07-16 00:15:00,72.4,66.9,30.20,SSE,166,0.0,8.0,83,0.00,,,0.00,Wunderground v.1.15,2013-07-16 05:15:00,
2013-07-16 00:20:00,72.1,66.6,30.20,SSE,166,0.0,8.0,83,0.00,,,0.00,Wunderground v.1.15,2013-07-16 05:20:00,
2013-07-16 00:25:00,71.9,66.5,30.20,SSE,166,0.0,8.0,83,0.00,,,0.00,Wunderground v.1.15,2013-07-16 05:25:00,
2013-07-16 00:30:00,71.6,66.5,30.20,SSE,166,0.0,8.0,84,0.00,,,0.00,Wunderground v.1.15,2013-07-16 05:30:00,
2013-07-16 00:35:00,71.4,66.3,30.20,SSE,166,0.0,8.0,84,0.00,,,0.00,Wunderground v.1.15,2013-07-16 05:35:00,
2013-07-16 00:40:00,71.3,66.6,30.20,SSE,166,0.0,8.0,85,0.00,,,0.00,Wunderground v.1.15,2013-07-16 05:40:00,
2013-07-16 00:45:00,71.4,66.7,30.20,SSE,166,0.0,8.0,85,0.00,,,0.00,Wunderground v.1.15,2013-07-16 05:45:00,
2013-07-16 00:50:00,71.4,66.7,30.20,SSE,166,0.0,8.0,85,0.00,,,0.00,Wunderground v.1.15,2013-07-16 05:50:00,
2013-07-16 00:55:00,71.2,66.5,30.20,SSE,166,0.0,8.0,85,0.00,,,0.00,Wunderground v.1.15,2013-07-16 05:55:00,
2013-07-16 01:05:00,71.0,66.6,30.20,SSE,166,0.0,8.0,86,0.00,,,0.00,Wunderground v.1.15,2013-07-16 06:05:00,
2013-07-16 01:10:00,70.9,66.5,30.20,SSE,166,0.0,8.0,86,0.00,,,0.00,Wunderground v.1.15,2013-07-16 06:10:00,
2013-07-16 01:15:00,70.8,66.7,30.20,South,169,0.0,8.0,87,0.00,,,0.00,Wunderground v.1.15,2013-07-16 06:15:00,
2013-07-16 01:20:00,70.8,66.7,30.20,South,177,0.0,8.0,87,0.00,,,0.00,Wunderground v.1.15,2013-07-16 06:20:00,
2013-07-16 01:25:00,70.7,66.6,30.20,South,177,0.0,8.0,87,0.00,,,0.00,Wunderground v.1.15,2013-07-16 06:25:00,
2013-07-16 01:30:00,70.7,67.0,30.20,South,177,0.0,8.0,88,0.00,,,0.00,Wunderground v.1.15,2013-07-16 06:30:00,
2013-07-16 01:35:00,70.5,66.8,30.20,South,177,0.0,8.0,88,0.00,,,0.00,Wunderground v.1.15,2013-07-16 06:35:00,
2013-07-16 01:40:00,70.4,66.7,30.20,South,177,0.0,8.0,88,0.00,,,0.00,Wunderground v.1.15,2013-07-16 06:40:00,
2013-07-16 01:45:00,70.3,66.6,30.20,South,177,0.0,8.0,88,0.00,,,0.00,Wunderground v.1.15,2013-07-16 06:45:00,
2013-07-16 01:50:00,70.3,66.9,30.20,South,177,0.0,8.0,89,0.00,,,0.00,Wunderground v.1.15,2013-07-16 06:50:00,
2013-07-16 01:55:00,70.3,66.9,30.20,South,177,0.0,8.0,89,0.00,,,0.00,Wunderground v.1.15,2013-07-16 06:55:00,
2013-07-16 02:00:00,70.3,66.9,30.20,South,177,0.0,8.0,89,0.00,,,0.00,Wunderground v.1.15,2013-07-16 07:00:00,
2013-07-16 02:05:00,70.3,66.9,30.20,South,177,0.0,8.0,89,0.00,,,0.00,Wunderground v.1.15,2013-07-16 07:05:00,
2013-07-16 02:10:00,70.3,66.9,30.20,South,177,0.0,8.0,89,0.00,,,0.00,Wunderground v.1.15,2013-07-16 07:10:00,
2013-07-16 02:20:00,69.9,66.8,30.20,South,177,0.0,8.0,90,0.00,,,0.00,Wunderground v.1.15,2013-07-16 07:20:00,
2013-07-16 02:30:00,69.9,66.8,30.20,South,177,0.0,8.0,90,0.00,,,0.00,Wunderground v.1.15,2013-07-16 07:30:00,
2013-07-16 02:35:00,70.0,67.3,30.20,South,177,0.0,8.0,91,0.00,,,0.00,Wunderground v.1.15,2013-07-16 07:35:00,
2013-07-16 02:40:00,70.0,67.3,30.20,South,177,0.0,8.0,91,0.00,,,0.00,Wunderground v.1.15,2013-07-16 07:40:00,
2013-07-16 02:45:00,69.9,67.2,30.20,South,177,0.0,8.0,91,0.00,,,0.00,Wunderground v.1.15,2013-07-16 07:45:00,
2013-07-16 02:50:00,69.9,67.2,30.20,South,177,0.0,8.0,91,0.00,,,0.00,Wunderground v.1.15,2013-07-16 07:50:00,
2013-07-16 02:55:00,69.8,67.1,30.20,South,177,0.0,8.0,91,0.00,,,0.00,Wunderground v.1.15,2013-07-16 07:55:00,
2013-07-16 03:00:00,69.8,67.1,30.20,South,177,0.0,8.0,91,0.00,,,0.00,Wunderground v.1.15,2013-07-16 08:00:00,
2013-07-16 03:05:00,69.9,67.2,30.20,South,177,0.0,8.0,91,0.00,,,0.00,Wunderground v.1.15,2013-07-16 08:05:00,
2013-07-16 03:10:00,69.7,67.0,30.20,South,177,0.0,8.0,91,0.00,,,0.00,Wunderground v.1.15,2013-07-16 08:10:00,
2013-07-16 03:20:00,69.6,66.9,30.20,South,177,0.0,8.0,91,0.00,,,0.00,Wunderground v.1.15,2013-07-16 08:20:00,
2013-07-16 03:25:00,69.5,67.1,30.20,South,177,0.0,8.0,92,0.00,,,0.00,Wunderground v.1.15,2013-07-16 08:25:00,
2013-07-16 03:30:00,69.4,67.0,30.20,South,177,0.0,8.0,92,0.00,,,0.00,Wunderground v.1.15,2013-07-16 08:30:00,
2013-07-16 03:35:00,69.4,67.0,30.20,South,177,0.0,8.0,92,0.00,,,0.00,Wunderground v.1.15,2013-07-16 08:35:00,
2013-07-16 03:40:00,69.4,67.0,30.21,South,177,0.0,8.0,92,0.00,,,0.00,Wunderground v.1.15,2013-07-16 08:40:00,
2013-07-16 03:45:00,69.3,66.9,30.21,SSW,213,0.0,8.0,92,0.00,,,0.00,Wunderground v.1.15,2013-07-16 08:45:00,
2013-07-16 03:50:00,69.4,67.3,30.21,SSW,192,0.0,8.0,93,0.00,,,0.00,Wunderground v.1.15,2013-07-16 08:50:00,
2013-07-16 03:55:00,69.4,67.0,30.21,SSW,192,0.0,8.0,92,0.00,,,0.00,Wunderground v.1.15,2013-07-16 08:55:00,
2013-07-16 04:00:00,69.5,67.4,30.21,SSW,192,0.0,8.0,93,0.00,,,0.00,Wunderground v.1.15,2013-07-16 09:00:00,
2013-07-16 04:05:00,69.6,67.2,30.21,SSW,192,0.0,8.0,92,0.00,,,0.00,Wunderground v.1.15,2013-07-16 09:05:00,
2013-07-16 04:10:00,69.5,67.1,30.21,SSW,192,0.0,8.0,92,0.00,,,0.00,Wunderground v.1.15,2013-07-16 09:10:00,
2013-07-16 04:20:00,70.1,68.0,30.21,South,184,0.0,8.0,93,0.00,,,0.00,Wunderground v.1.15,2013-07-16 09:20:00,
2013-07-16 04:30:00,69.8,67.7,30.21,SW,218,0.0,8.0,93,0.00,,,0.00,Wunderground v.1.15,2013-07-16 09:30:00,
2013-07-16 04:35:00,70.1,68.0,30.21,SW,218,0.0,8.0,93,0.00,,,0.00,Wunderground v.1.15,2013-07-16 09:35:00,
2013-07-16 04:40:00,69.9,67.8,30.21,SW,218,0.0,8.0,93,0.00,,,0.00,Wunderground v.1.15,2013-07-16 09:40:00,
2013-07-16 04:45:00,69.6,67.5,30.21,SW,218,0.0,8.0,93,0.00,,,0.00,Wunderground v.1.15,2013-07-16 09:45:00,
2013-07-16 04:55:00,70.2,68.1,30.21,SSW,209,0.0,8.0,93,0.00,,,0.00,Wunderground v.1.15,2013-07-16 09:55:00,
2013-07-16 05:00:00,69.8,67.7,30.21,SSW,209,0.0,8.0,93,0.00,,,0.00,Wunderground v.1.15,2013-07-16 10:00:00,
2013-07-16 05:05:00,69.7,67.6,30.21,SSW,209,0.0,8.0,93,0.00,,,0.00,Wunderground v.1.15,2013-07-16 10:05:00,
2013-07-16 05:10:00,69.5,67.4,30.21,SSW,209,0.0,8.0,93,0.00,,,0.00,Wunderground v.1.15,2013-07-16 10:10:00,
2013-07-16 05:15:00,69.6,67.5,30.21,SSW,209,0.0,8.0,93,0.00,,,0.00,Wunderground v.1.15,2013-07-16 10:15:00,
2013-07-16 05:20:00,69.7,67.6,30.21,SSW,209,0.0,8.0,93,0.00,,,0.00,Wunderground v.1.15,2013-07-16 10:20:00,
2013-07-16 05:25:00,69.9,68.1,30.22,SSW,209,0.0,8.0,94,0.00,,,0.00,Wunderground v.1.15,2013-07-16 10:25:00,
2013-07-16 05:30:00,70.1,68.3,30.22,SSW,209,0.0,8.0,94,0.00,,,0.00,Wunderground v.1.15,2013-07-16 10:30:00,
2013-07-16 05:35:00,70.3,68.5,30.22,SSW,209,0.0,8.0,94,0.00,,,0.00,Wunderground v.1.15,2013-07-16 10:35:00,
2013-07-16 05:40:00,70.5,68.7,30.22,SSW,209,0.0,8.0,94,0.00,,,0.00,Wunderground v.1.15,2013-07-16 10:40:00,
2013-07-16 05:45:00,70.6,68.8,30.22,SSW,209,0.0,8.0,94,0.00,,,0.00,Wunderground v.1.15,2013-07-16 10:45:00,
2013-07-16 05:55:00,70.8,69.0,30.22,SSW,209,0.0,8.0,94,0.00,,,0.00,Wunderground v.1.15,2013-07-16 10:55:00,
2013-07-16 06:00:00,71.0,69.2,30.22,SSW,209,0.0,8.0,94,0.00,,,0.00,Wunderground v.1.15,2013-07-16 11:00:00,
2013-07-16 06:05:00,71.1,69.3,30.22,SSW,209,0.0,8.0,94,0.00,,,0.00,Wunderground v.1.15,2013-07-16 11:05:00,
2013-07-16 06:10:00,71.1,69.3,30.22,SSW,209,0.0,8.0,94,0.00,,,0.00,Wunderground v.1.15,2013-07-16 11:10:00,
2013-07-16 06:15:00,71.2,69.4,30.22,SSW,209,0.0,8.0,94,0.00,,,0.00,Wunderground v.1.15,2013-07-16 11:15:00,
2013-07-16 06:20:00,71.2,69.4,30.22,SSW,209,0.0,8.0,94,0.00,,,0.00,Wunderground v.1.15,2013-07-16 11:20:00,
2013-07-16 06:25:00,71.5,69.7,30.22,South,189,0.0,8.0,94,0.00,,,0.00,Wunderground v.1.15,2013-07-16 11:25:00,
2013-07-16 06:30:00,71.7,69.9,30.22,South,189,0.0,8.0,94,0.00,,,0.00,Wunderground v.1.15,2013-07-16 11:30:00,
2013-07-16 06:35:00,71.9,70.1,30.22,South,189,0.0,8.0,94,0.00,,,0.00,Wunderground v.1.15,2013-07-16 11:35:00,
2013-07-16 06:40:00,72.1,70.3,30.22,South,185,0.0,8.0,94,0.00,,,0.00,Wunderground v.1.15,2013-07-16 11:40:00,
2013-07-16 06:45:00,72.2,70.4,30.22,South,188,0.0,8.0,94,0.00,,,0.00,Wunderground v.1.15,2013-07-16 11:45:00,
2013-07-16 06:50:00,72.6,70.8,30.21,SSW,194,1.0,8.0,94,0.00,,,0.00,Wunderground v.1.15,2013-07-16 11:50:00,
2013-07-16 06:55:00,72.8,71.0,30.21,SSE,159,1.0,8.0,94,0.00,,,0.00,Wunderground v.1.15,2013-07-16 11:55:00,
2013-07-16 07:00:00,72.9,70.8,30.22,SSW,195,1.0,1.0,93,0.00,,,0.00,Wunderground v.1.15,2013-07-16 12:00:00,
2013-07-16 07:05:00,73.1,71.0,30.21,South,171,2.0,2.0,93,0.00,,,0.00,Wunderground v.1.15,2013-07-16 12:05:00,
2013-07-16 07:10:00,73.4,71.3,30.21,South,171,1.0,8.0,93,0.00,,,0.00,Wunderground v.1.15,2013-07-16 12:10:00,
2013-07-16 07:15:00,73.8,71.6,30.21,SW,231,1.0,8.0,93,0.00,,,0.00,Wunderground v.1.15,2013-07-16 12:15:00,
2013-07-16 07:20:00,74.3,71.8,30.21,South,182,1.0,8.0,92,0.00,,,0.00,Wunderground v.1.15,2013-07-16 12:20:00,
2013-07-16 07:25:00,74.7,72.2,30.22,South,175,2.0,8.0,92,0.00,,,0.00,Wunderground v.1.15,2013-07-16 12:25:00,
2013-07-16 07:30:00,75.1,72.6,30.22,SSE,167,2.0,8.0,92,0.00,,,0.00,Wunderground v.1.15,2013-07-16 12:30:00,
2013-07-16 07:35:00,75.5,72.7,30.22,SSE,167,2.0,8.0,91,0.00,,,0.00,Wunderground v.1.15,2013-07-16 12:35:00,
2013-07-16 07:40:00,75.9,72.8,30.22,SW,217,2.0,8.0,90,0.00,,,0.00,Wunderground v.1.15,2013-07-16 12:40:00,
2013-07-16 07:45:00,76.4,72.9,30.21,SSE,163,3.0,8.0,89,0.00,,,0.00,Wunderground v.1.15,2013-07-16 12:45:00,
2013-07-16 07:50:00,76.7,72.9,30.21,SW,220,3.0,3.0,88,0.00,,,0.00,Wunderground v.1.15,2013-07-16 12:50:00,
2013-07-16 07:55:00,77.3,73.1,30.22,SSE,164,3.0,4.0,87,0.00,,,0.00,Wunderground v.1.15,2013-07-16 12:55:00,
2013-07-16 08:00:00,77.6,73.1,30.22,South,175,3.0,8.0,86,0.00,,,0.00,Wunderground v.1.15,2013-07-16 13:00:00,
2013-07-16 08:05:00,78.0,73.5,30.21,SSW,200,3.0,8.0,86,0.00,,,0.00,Wunderground v.1.15,2013-07-16 13:05:00,
2013-07-16 08:10:00,78.2,73.3,30.22,SSW,194,4.0,8.0,85,0.00,,,0.00,Wunderground v.1.15,2013-07-16 13:10:00,
2013-07-16 08:15:00,78.4,73.2,30.22,SSW,205,4.0,8.0,84,0.00,,,0.00,Wunderground v.1.15,2013-07-16 13:15:00,
2013-07-16 08:20:00,78.8,73.6,30.22,WSW,240,3.0,3.0,84,0.00,,,0.00,Wunderground v.1.15,2013-07-16 13:20:00,
2013-07-16 08:25:00,79.1,73.8,30.22,WSW,242,3.0,4.0,84,0.00,,,0.00,Wunderground v.1.15,2013-07-16 13:25:00,
2013-07-16 08:30:00,79.5,73.9,30.22,SW,227,3.0,3.0,83,0.00,,,0.00,Wunderground v.1.15,2013-07-16 13:30:00,
2013-07-16 08:35:00,79.8,74.2,30.22,WSW,240,3.0,8.0,83,0.00,,,0.00,Wunderground v.1.15,2013-07-16 13:35:00,
2013-07-16 08:45:00,80.5,74.1,30.22,SW,233,2.0,8.0,81,0.00,,,0.00,Wunderground v.1.15,2013-07-16 13:45:00,
2013-07-16 08:50:00,80.7,74.3,30.22,South,185,3.0,3.0,81,0.00,,,0.00,Wunderground v.1.15,2013-07-16 13:50:00,
2013-07-16 08:55:00,80.9,74.5,30.21,WSW,240,2.0,8.0,81,0.00,,,0.00,Wunderground v.1.15,2013-07-16 13:55:00,
2013-07-16 09:05:00,81.5,74.7,30.21,SW,234,1.0,8.0,80,0.00,,,0.00,Wunderground v.1.15,2013-07-16 14:05:00,
2013-07-16 09:10:00,81.6,74.5,30.21,South,180,1.0,8.0,79,0.00,,,0.00,Wunderground v.1.15,2013-07-16 14:10:00,
2013-07-16 09:15:00,82.0,75.2,30.21,SW,230,2.0,8.0,80,0.00,,,0.00,Wunderground v.1.15,2013-07-16 14:15:00,
2013-07-16 09:25:00,82.4,74.8,30.21,WNW,288,2.0,8.0,78,0.00,,,0.00,Wunderground v.1.15,2013-07-16 14:25:00,
2013-07-16 09:30:00,82.7,75.1,30.21,SW,217,4.0,4.0,78,0.00,,,0.00,Wunderground v.1.15,2013-07-16 14:30:00,
2013-07-16 09:35:00,83.1,75.1,30.21,West,259,3.0,8.0,77,0.00,,,0.00,Wunderground v.1.15,2013-07-16 14:35:00,
2013-07-16 09:40:00,83.6,75.2,30.21,WNW,284,2.0,2.0,76,0.00,,,0.00,Wunderground v.1.15,2013-07-16 14:40:00,
2013-07-16 09:50:00,84.2,75.4,30.20,WSW,238,3.0,8.0,75,0.00,,,0.00,Wunderground v.1.15,2013-07-16 14:50:00,
2013-07-16 09:55:00,84.4,75.6,30.21,West,280,3.0,8.0,75,0.00,,,0.00,Wunderground v.1.15,2013-07-16 14:55:00,
2013-07-16 10:00:00,84.6,75.0,30.21,West,266,5.0,5.0,73,0.00,,,0.00,Wunderground v.1.15,2013-07-16 15:00:00,
2013-07-16 10:05:00,85.1,75.5,30.21,WSW,241,4.0,8.0,73,0.00,,,0.00,Wunderground v.1.15,2013-07-16 15:05:00,
2013-07-16 10:10:00,85.1,75.5,30.21,WSW,244,2.0,2.0,73,0.00,,,0.00,Wunderground v.1.15,2013-07-16 15:10:00,
2013-07-16 10:15:00,85.4,74.9,30.21,WSW,254,0.0,8.0,71,0.00,,,0.00,Wunderground v.1.15,2013-07-16 15:15:00,
2013-07-16 10:20:00,85.8,75.7,30.20,SW,236,0.0,8.0,72,0.00,,,0.00,Wunderground v.1.15,2013-07-16 15:20:00,
2013-07-16 10:25:00,86.2,75.7,30.20,WSW,245,0.0,8.0,71,0.00,,,0.00,Wunderground v.1.15,2013-07-16 15:25:00,
2013-07-16 10:30:00,86.3,74.9,30.21,West,264,0.0,8.0,69,0.00,,,0.00,Wunderground v.1.15,2013-07-16 15:30:00,
2013-07-16 10:35:00,86.5,75.5,30.20,WSW,253,0.0,8.0,70,0.00,,,0.00,Wunderground v.1.15,2013-07-16 15:35:00,
2013-07-16 10:45:00,86.6,76.5,30.20,South,173,0.0,8.0,72,0.00,,,0.00,Wunderground v.1.15,2013-07-16 15:45:00,
2013-07-16 10:50:00,86.4,76.3,30.20,South,188,0.0,8.0,72,0.00,,,0.00,Wunderground v.1.15,2013-07-16 15:50:00,
2013-07-16 10:55:00,86.3,76.2,30.20,SSW,192,0.0,8.0,72,0.00,,,0.00,Wunderground v.1.15,2013-07-16 15:55:00,
2013-07-16 11:00:00,86.3,76.2,30.20,SW,236,0.0,8.0,72,0.00,,,0.00,Wunderground v.1.15,2013-07-16 16:00:00,
2013-07-16 11:05:00,86.5,76.4,30.20,WSW,240,0.0,8.0,72,0.00,,,0.00,Wunderground v.1.15,2013-07-16 16:05:00,
2013-07-16 11:15:00,86.6,76.5,30.20,West,280,0.0,8.0,72,0.00,,,0.00,Wunderground v.1.15,2013-07-16 16:15:00,
2013-07-16 11:20:00,86.6,76.1,30.20,West,280,0.0,8.0,71,0.00,,,0.00,Wunderground v.1.15,2013-07-16 16:20:00,
2013-07-16 11:25:00,86.3,76.2,30.20,SSW,202,0.0,8.0,72,0.00,,,0.00,Wunderground v.1.15,2013-07-16 16:25:00,
2013-07-16 11:30:00,86.0,76.3,30.20,West,259,0.0,8.0,73,0.00,,,0.00,Wunderground v.1.15,2013-07-16 16:30:00,
2013-07-16 11:35:00,86.1,76.4,30.20,WSW,238,0.0,8.0,73,0.00,,,0.00,Wunderground v.1.15,2013-07-16 16:35:00,
2013-07-16 11:40:00,86.3,76.6,30.19,WSW,243,0.0,8.0,73,0.00,,,0.00,Wunderground v.1.15,2013-07-16 16:40:00,
2013-07-16 11:45:00,86.6,76.9,30.20,WSW,244,0.0,8.0,73,0.00,,,0.00,Wunderground v.1.15,2013-07-16 16:45:00,
2013-07-16 11:50:00,86.8,76.7,30.19,West,265,0.0,8.0,72,0.00,,,0.00,Wunderground v.1.15,2013-07-16 16:50:00,
2013-07-16 11:55:00,87.0,76.5,30.19,SW,222,0.0,8.0,71,0.00,,,0.00,Wunderground v.1.15,2013-07-16 16:55:00,
2013-07-16 12:00:00,87.0,76.9,30.19,SW,215,0.0,8.0,72,0.00,,,0.00,Wunderground v.1.15,2013-07-16 17:00:00,
2013-07-16 12:05:00,86.9,76.8,30.19,SW,217,0.0,8.0,72,0.00,,,0.00,Wunderground v.1.15,2013-07-16 17:05:00,
2013-07-16 12:10:00,87.3,76.7,30.19,SW,226,0.0,8.0,71,0.00,,,0.00,Wunderground v.1.15,2013-07-16 17:10:00,
2013-07-16 12:15:00,87.5,76.5,30.19,South,182,0.0,8.0,70,0.00,,,0.00,Wunderground v.1.15,2013-07-16 17:15:00,
2013-07-16 12:25:00,87.8,77.2,30.19,SSW,196,0.0,8.0,71,0.00,,,0.00,Wunderground v.1.15,2013-07-16 17:25:00,
2013-07-16 12:30:00,88.2,76.7,30.19,SW,231,0.0,8.0,69,0.00,,,0.00,Wunderground v.1.15,2013-07-16 17:30:00,
2013-07-16 12:35:00,87.9,76.9,30.19,SW,234,0.0,8.0,70,0.00,,,0.00,Wunderground v.1.15,2013-07-16 17:35:00,
2013-07-16 12:40:00,87.7,76.3,30.18,SW,235,0.0,8.0,69,0.00,,,0.00,Wunderground v.1.15,2013-07-16 17:40:00,
2013-07-16 12:45:00,87.9,76.5,30.18,SSE,167,0.0,8.0,69,0.00,,,0.00,Wunderground v.1.15,2013-07-16 17:45:00,
2013-07-16 12:50:00,87.8,76.8,30.18,SSE,156,0.0,8.0,70,0.00,,,0.00,Wunderground v.1.15,2013-07-16 17:50:00,
2013-07-16 12:55:00,87.7,76.3,30.18,SSE,165,0.0,8.0,69,0.00,,,0.00,Wunderground v.1.15,2013-07-16 17:55:00,
2013-07-16 13:05:00,87.9,76.5,30.18,SSE,154,0.0,8.0,69,0.00,,,0.00,Wunderground v.1.15,2013-07-16 18:05:00,
2013-07-16 13:10:00,88.2,76.7,30.18,WSW,242,0.0,8.0,69,0.00,,,0.00,Wunderground v.1.15,2013-07-16 18:10:00,
2013-07-16 13:15:00,88.7,76.8,30.18,West,260,0.0,8.0,68,0.00,,,0.00,Wunderground v.1.15,2013-07-16 18:15:00,
2013-07-16 13:20:00,88.9,76.5,30.18,SW,215,0.0,8.0,67,0.00,,,0.00,Wunderground v.1.15,2013-07-16 18:20:00,
2013-07-16 13:25:00,89.0,76.2,30.18,SSW,202,0.0,8.0,66,0.00,,,0.00,Wunderground v.1.15,2013-07-16 18:25:00,
2013-07-16 13:30:00,88.7,75.9,30.17,SSW,199,0.0,8.0,66,0.00,,,0.00,Wunderground v.1.15,2013-07-16 18:30:00,
2013-07-16 13:35:00,88.9,76.1,30.17,SW,218,0.0,8.0,66,0.00,,,0.00,Wunderground v.1.15,2013-07-16 18:35:00,
2013-07-16 13:40:00,89.1,76.3,30.17,SSE,166,0.0,8.0,66,0.00,,,0.00,Wunderground v.1.15,2013-07-16 18:40:00,
2013-07-16 13:45:00,89.5,76.2,30.17,SSW,205,0.0,8.0,65,0.00,,,0.00,Wunderground v.1.15,2013-07-16 18:45:00,
2013-07-16 13:50:00,89.8,76.0,30.17,SW,228,0.0,8.0,64,0.00,,,0.00,Wunderground v.1.15,2013-07-16 18:50:00,
2013-07-16 13:55:00,90.1,75.8,30.17,WSW,250,0.0,8.0,63,0.00,,,0.00,Wunderground v.1.15,2013-07-16 18:55:00,
2013-07-16 14:00:00,89.1,74.9,30.16,SE,131,0.0,8.0,63,0.00,,,0.00,Wunderground v.1.15,2013-07-16 19:00:00,
2013-07-16 14:05:00,88.1,74.8,30.17,South,175,0.0,8.0,65,0.00,,,0.00,Wunderground v.1.15,2013-07-16 19:05:00,
2013-07-16 14:10:00,87.6,74.4,30.17,SW,229,0.0,8.0,65,0.00,,,0.00,Wunderground v.1.15,2013-07-16 19:10:00,
2013-07-16 14:15:00,87.4,75.1,30.16,SSE,161,0.0,8.0,67,0.00,,,0.00,Wunderground v.1.15,2013-07-16 19:15:00,
2013-07-16 14:20:00,87.4,75.5,30.16,SW,236,0.0,8.0,68,0.00,,,0.00,Wunderground v.1.15,2013-07-16 19:20:00,
2013-07-16 14:25:00,87.0,75.2,30.17,South,188,0.0,8.0,68,0.00,,,0.00,Wunderground v.1.15,2013-07-16 19:25:00,
2013-07-16 14:30:00,86.9,75.1,30.17,SSW,200,0.0,8.0,68,0.00,,,0.00,Wunderground v.1.15,2013-07-16 19:30:00,
2013-07-16 14:35:00,86.5,76.0,30.17,SW,229,0.0,8.0,71,0.00,,,0.00,Wunderground v.1.15,2013-07-16 19:35:00,
2013-07-16 14:40:00,85.6,76.4,30.17,SSW,205,0.0,8.0,74,0.00,,,0.00,Wunderground v.1.15,2013-07-16 19:40:00,
2013-07-16 14:45:00,85.2,76.0,30.17,SSW,205,0.0,8.0,74,0.00,,,0.00,Wunderground v.1.15,2013-07-16 19:45:00,
2013-07-16 14:55:00,84.7,76.7,30.17,SW,219,0.0,8.0,77,0.00,,,0.00,Wunderground v.1.15,2013-07-16 19:55:00,
2013-07-16 15:00:00,84.8,76.8,30.17,South,184,0.0,8.0,77,0.00,,,0.00,Wunderground v.1.15,2013-07-16 20:00:00,
2013-07-16 15:05:00,84.8,77.2,30.18,WSW,252,0.0,8.0,78,0.00,,,0.00,Wunderground v.1.15,2013-07-16 20:05:00,
2013-07-16 15:10:00,84.8,77.2,30.18,SW,219,0.0,8.0,78,0.00,,,0.00,Wunderground v.1.15,2013-07-16 20:10:00,
2013-07-16 15:15:00,84.5,76.5,30.18,SSW,204,0.0,8.0,77,0.00,,,0.00,Wunderground v.1.15,2013-07-16 20:15:00,
2013-07-16 15:20:00,84.1,76.1,30.17,South,190,0.0,8.0,77,0.00,,,0.00,Wunderground v.1.15,2013-07-16 20:20:00,
2013-07-16 15:25:00,84.1,76.5,30.18,South,178,0.0,8.0,78,0.00,,,0.00,Wunderground v.1.15,2013-07-16 20:25:00,
2013-07-16 15:30:00,84.1,76.1,30.17,WSW,243,0.0,8.0,77,0.00,,,0.00,Wunderground v.1.15,2013-07-16 20:30:00,
2013-07-16 15:35:00,84.2,76.6,30.17,SW,219,0.0,8.0,78,0.00,,,0.00,Wunderground v.1.15,2013-07-16 20:35:00,
2013-07-16 15:40:00,84.3,76.7,30.17,WSW,240,0.0,8.0,78,0.00,,,0.00,Wunderground v.1.15,2013-07-16 20:40:00,
2013-07-16 15:50:00,84.8,76.8,30.17,SW,215,0.0,8.0,77,0.00,,,0.00,Wunderground v.1.15,2013-07-16 20:50:00,
2013-07-16 15:55:00,85.3,76.9,30.17,SW,236,0.0,8.0,76,0.00,,,0.00,Wunderground v.1.15,2013-07-16 20:55:00,
2013-07-16 16:00:00,85.7,76.9,30.17,SSW,199,0.0,8.0,75,0.00,,,0.00,Wunderground v.1.15,2013-07-16 21:00:00,
2013-07-16 16:05:00,85.9,77.1,30.17,WSW,240,0.0,8.0,75,0.00,,,0.00,Wunderground v.1.15,2013-07-16 21:05:00,
2013-07-16 16:10:00,86.1,76.8,30.16,SW,224,0.0,8.0,74,0.00,,,0.00,Wunderground v.1.15,2013-07-16 21:10:00,
2013-07-16 16:20:00,86.8,77.1,30.16,WSW,246,0.0,8.0,73,0.00,,,0.00,Wunderground v.1.15,2013-07-16 21:20:00,
2013-07-16 16:25:00,87.1,77.4,30.15,SW,227,0.0,8.0,73,0.00,,,0.00,Wunderground v.1.15,2013-07-16 21:25:00,
2013-07-16 16:30:00,87.2,77.1,30.16,SW,225,0.0,8.0,72,0.00,,,0.00,Wunderground v.1.15,2013-07-16 21:30:00,
2013-07-16 16:35:00,87.1,77.4,30.15,SW,215,0.0,8.0,73,0.00,,,0.00,Wunderground v.1.15,2013-07-16 21:35:00,
2013-07-16 16:40:00,86.9,77.2,30.14,SW,221,0.0,8.0,73,0.00,,,0.00,Wunderground v.1.15,2013-07-16 21:40:00,
2013-07-16 16:45:00,86.6,76.9,30.15,WSW,240,0.0,8.0,73,0.00,,,0.00,Wunderground v.1.15,2013-07-16 21:45:00,
2013-07-16 16:50:00,86.4,77.1,30.14,SW,227,0.0,8.0,74,0.00,,,0.01,Wunderground v.1.15,2013-07-16 21:50:00,
2013-07-16 17:00:00,85.4,77.4,30.15,WSW,253,0.0,8.0,77,0.00,,,0.01,Wunderground v.1.15,2013-07-16 22:00:00,
2013-07-16 17:05:00,85.1,77.5,30.14,SW,222,0.0,8.0,78,0.00,,,0.01,Wunderground v.1.15,2013-07-16 22:05:00,
2013-07-16 17:10:00,84.8,77.9,30.14,SSW,193,0.0,8.0,80,0.00,,,0.01,Wunderground v.1.15,2013-07-16 22:10:00,
2013-07-16 17:20:00,84.1,78.0,30.14,South,184,0.0,8.0,82,0.00,,,0.01,Wunderground v.1.15,2013-07-16 22:20:00,
2013-07-16 17:25:00,83.9,77.8,30.14,SW,228,0.0,8.0,82,0.00,,,0.01,Wunderground v.1.15,2013-07-16 22:25:00,
2013-07-16 17:35:00,83.6,77.9,30.14,SSW,192,0.0,8.0,83,0.00,,,0.01,Wunderground v.1.15,2013-07-16 22:35:00,
2013-07-16 17:40:00,83.4,77.7,30.14,South,182,0.0,8.0,83,0.00,,,0.01,Wunderground v.1.15,2013-07-16 22:40:00,
2013-07-16 17:45:00,83.4,77.3,30.14,SSW,211,0.0,8.0,82,0.00,,,0.01,Wunderground v.1.15,2013-07-16 22:45:00,
2013-07-16 17:50:00,83.4,77.3,30.14,SW,219,0.0,8.0,82,0.00,,,0.01,Wunderground v.1.15,2013-07-16 22:50:00,
2013-07-16 17:55:00,83.4,77.3,30.14,SSW,195,0.0,8.0,82,0.00,,,0.01,Wunderground v.1.15,2013-07-16 22:55:00,
2013-07-16 18:00:00,83.5,77.4,30.14,SW,221,0.0,8.0,82,0.00,,,0.01,Wunderground v.1.15,2013-07-16 23:00:00,
2013-07-16 18:05:00,83.6,77.5,30.15,SW,227,0.0,8.0,82,0.00,,,0.01,Wunderground v.1.15,2013-07-16 23:05:00,
2013-07-16 18:10:00,83.7,77.6,30.14,SSW,198,0.0,8.0,82,0.00,,,0.01,Wunderground v.1.15,2013-07-16 23:10:00,
2013-07-16 18:15:00,83.6,77.5,30.14,WSW,250,0.0,8.0,82,0.00,,,0.01,Wunderground v.1.15,2013-07-16 23:15:00,
2013-07-16 18:20:00,83.8,77.7,30.14,WSW,239,0.0,8.0,82,0.00,,,0.01,Wunderground v.1.15,2013-07-16 23:20:00,
2013-07-16 18:25:00,83.9,77.8,30.13,WSW,239,0.0,8.0,82,0.00,,,0.01,Wunderground v.1.15,2013-07-16 23:25:00,
2013-07-16 18:30:00,84.0,77.9,30.13,SSW,205,0.0,8.0,82,0.00,,,0.01,Wunderground v.1.15,2013-07-16 23:30:00,
2013-07-16 18:35:00,83.9,77.4,30.14,SSW,205,0.0,8.0,81,0.00,,,0.01,Wunderground v.1.15,2013-07-16 23:35:00,
2013-07-16 18:40:00,83.8,77.7,30.14,South,182,0.0,8.0,82,0.00,,,0.01,Wunderground v.1.15,2013-07-16 23:40:00,
2013-07-16 18:45:00,83.7,77.2,30.14,South,188,0.0,8.0,81,0.00,,,0.01,Wunderground v.1.15,2013-07-16 23:45:00,
2013-07-16 18:50:00,83.6,77.1,30.13,SW,215,0.0,8.0,81,0.00,,,0.01,Wunderground v.1.15,2013-07-16 23:50:00,
2013-07-16 18:55:00,83.6,77.1,30.13,South,191,0.0,8.0,81,0.00,,,0.01,Wunderground v.1.15,2013-07-16 23:55:00,
2013-07-16 19:00:00,83.5,76.7,30.13,SW,220,0.0,8.0,80,0.00,,,0.01,Wunderground v.1.15,2013-07-17 00:00:00,
2013-07-16 19:05:00,83.4,76.6,30.13,SW,232,0.0,8.0,80,0.00,,,0.01,Wunderground v.1.15,2013-07-17 00:05:00,
2013-07-16 19:15:00,83.1,76.3,30.13,SW,221,0.0,8.0,80,0.00,,,0.01,Wunderground v.1.15,2013-07-17 00:15:00,
2013-07-16 19:20:00,83.0,76.2,30.13,SW,232,0.0,8.0,80,0.00,,,0.01,Wunderground v.1.15,2013-07-17 00:20:00,
2013-07-16 19:25:00,82.9,76.1,30.13,South,183,0.0,8.0,80,0.00,,,0.01,Wunderground v.1.15,2013-07-17 00:25:00,
2013-07-16 19:30:00,82.9,76.1,30.13,SSW,200,0.0,8.0,80,0.00,,,0.01,Wunderground v.1.15,2013-07-17 00:30:00,
2013-07-16 19:35:00,82.9,76.1,30.12,SSW,196,1.0,8.0,80,0.00,,,0.01,Wunderground v.1.15,2013-07-17 00:35:00,
2013-07-16 19:40:00,82.9,76.1,30.12,WSW,247,1.0,1.0,80,0.00,,,0.01,Wunderground v.1.15,2013-07-17 00:40:00,
2013-07-16 19:45:00,82.8,76.0,30.12,SW,223,0.0,8.0,80,0.00,,,0.01,Wunderground v.1.15,2013-07-17 00:45:00,
2013-07-16 19:50:00,82.7,75.9,30.12,SW,220,0.0,8.0,80,0.00,,,0.01,Wunderground v.1.15,2013-07-17 00:50:00,
2013-07-16 19:55:00,82.7,75.9,30.12,SSW,193,0.0,8.0,80,0.00,,,0.01,Wunderground v.1.15,2013-07-17 00:55:00,
2013-07-16 20:00:00,82.6,75.8,30.12,WSW,242,0.0,8.0,80,0.00,,,0.01,Wunderground v.1.15,2013-07-17 01:00:00,
2013-07-16 20:05:00,82.5,75.7,30.13,WSW,246,0.0,8.0,80,0.00,,,0.01,Wunderground v.1.15,2013-07-17 01:05:00,
2013-07-16 20:10:00,82.5,75.7,30.13,WSW,238,0.0,8.0,80,0.00,,,0.01,Wunderground v.1.15,2013-07-17 01:10:00,
2013-07-16 20:15:00,82.3,75.5,30.13,SW,229,0.0,8.0,80,0.00,,,0.01,Wunderground v.1.15,2013-07-17 01:15:00,
2013-07-16 20:20:00,82.2,75.4,30.13,SW,221,0.0,8.0,80,0.00,,,0.01,Wunderground v.1.15,2013-07-17 01:20:00,
2013-07-16 20:25:00,82.0,75.2,30.13,SW,221,0.0,8.0,80,0.00,,,0.01,Wunderground v.1.15,2013-07-17 01:25:00,
2013-07-16 20:30:00,81.8,75.0,30.13,SW,217,0.0,8.0,80,0.00,,,0.01,Wunderground v.1.15,2013-07-17 01:30:00,
2013-07-16 20:35:00,81.6,74.8,30.13,SW,232,0.0,8.0,80,0.00,,,0.01,Wunderground v.1.15,2013-07-17 01:35:00,
2013-07-16 20:40:00,81.6,74.5,30.13,SW,230,0.0,8.0,79,0.00,,,0.01,Wunderground v.1.15,2013-07-17 01:40:00,
2013-07-16 20:45:00,81.3,74.5,30.13,West,265,0.0,8.0,80,0.00,,,0.01,Wunderground v.1.15,2013-07-17 01:45:00,
2013-07-16 20:50:00,81.2,74.4,30.13,SW,217,0.0,8.0,80,0.00,,,0.01,Wunderground v.1.15,2013-07-17 01:50:00,
2013-07-16 20:55:00,81.0,74.2,30.14,SW,214,0.0,8.0,80,0.00,,,0.01,Wunderground v.1.15,2013-07-17 01:55:00,
2013-07-16 21:00:00,80.8,74.4,30.13,SSW,203,0.0,8.0,81,0.00,,,0.01,Wunderground v.1.15,2013-07-17 02:00:00,
2013-07-16 21:05:00,80.6,74.2,30.13,SSW,205,0.0,8.0,81,0.00,,,0.01,Wunderground v.1.15,2013-07-17 02:05:00,
2013-07-16 21:15:00,80.2,74.2,30.14,SSW,211,0.0,8.0,82,0.00,,,0.01,Wunderground v.1.15,2013-07-17 02:15:00,
2013-07-16 21:20:00,80.0,74.4,30.14,SSW,213,0.0,8.0,83,0.00,,,0.01,Wunderground v.1.15,2013-07-17 02:20:00,
2013-07-16 21:25:00,79.9,74.6,30.14,SSW,213,0.0,8.0,84,0.00,,,0.01,Wunderground v.1.15,2013-07-17 02:25:00,
2013-07-16 21:35:00,79.5,74.6,30.14,SW,223,0.0,8.0,85,0.00,,,0.01,Wunderground v.1.15,2013-07-17 02:35:00,
2013-07-16 21:40:00,79.3,74.7,30.15,SSW,196,0.0,8.0,86,0.00,,,0.01,Wunderground v.1.15,2013-07-17 02:40:00,
2013-07-16 21:45:00,79.2,74.6,30.15,SW,222,0.0,8.0,86,0.00,,,0.01,Wunderground v.1.15,2013-07-17 02:45:00,
2013-07-16 21:50:00,79.0,74.5,30.15,SSW,196,0.0,8.0,86,0.00,,,0.01,Wunderground v.1.15,2013-07-17 02:50:00,
2013-07-16 21:55:00,78.9,74.7,30.15,SW,225,0.0,8.0,87,0.00,,,0.01,Wunderground v.1.15,2013-07-17 02:55:00,
2013-07-16 22:00:00,78.8,74.6,30.15,SW,225,0.0,8.0,87,0.00,,,0.01,Wunderground v.1.15,2013-07-17 03:00:00,
2013-07-16 22:05:00,78.7,74.5,30.15,SW,223,0.0,8.0,87,0.00,,,0.01,Wunderground v.1.15,2013-07-17 03:05:00,
2013-07-16 22:10:00,78.6,74.4,30.15,SW,233,0.0,8.0,87,0.00,,,0.01,Wunderground v.1.15,2013-07-17 03:10:00,
2013-07-16 22:15:00,78.5,74.3,30.16,SW,222,0.0,8.0,87,0.00,,,0.01,Wunderground v.1.15,2013-07-17 03:15:00,
2013-07-16 22:20:00,78.5,74.6,30.16,SW,234,0.0,8.0,88,0.00,,,0.01,Wunderground v.1.15,2013-07-17 03:20:00,
2013-07-16 22:25:00,78.5,74.6,30.16,SSW,207,0.0,8.0,88,0.00,,,0.01,Wunderground v.1.15,2013-07-17 03:25:00,
2013-07-16 22:30:00,78.4,74.5,30.16,SW,225,0.0,8.0,88,0.00,,,0.01,Wunderground v.1.15,2013-07-17 03:30:00,
2013-07-16 22:35:00,78.3,74.5,30.16,SW,217,0.0,8.0,88,0.00,,,0.01,Wunderground v.1.15,2013-07-17 03:35:00,
2013-07-16 22:40:00,78.2,74.7,30.16,West,264,0.0,8.0,89,0.00,,,0.01,Wunderground v.1.15,2013-07-17 03:40:00,
2013-07-16 22:45:00,78.2,74.7,30.16,WSW,244,0.0,8.0,89,0.00,,,0.01,Wunderground v.1.15,2013-07-17 03:45:00,
2013-07-16 22:50:00,78.2,74.7,30.16,SW,220,0.0,8.0,89,0.00,,,0.01,Wunderground v.1.15,2013-07-17 03:50:00,
2013-07-16 22:55:00,78.1,74.6,30.16,West,260,2.0,8.0,89,0.00,,,0.01,Wunderground v.1.15,2013-07-17 03:55:00,
2013-07-16 23:00:00,78.2,74.4,30.16,WSW,257,3.0,8.0,88,0.00,,,0.01,Wunderground v.1.15,2013-07-17 04:00:00,
2013-07-16 23:05:00,78.4,74.5,30.16,SSW,209,3.0,8.0,88,0.00,,,0.01,Wunderground v.1.15,2013-07-17 04:05:00,
2013-07-16 23:10:00,78.4,74.2,30.16,SW,234,3.0,8.0,87,0.00,,,0.01,Wunderground v.1.15,2013-07-17 04:10:00,
2013-07-16 23:15:00,78.4,74.2,30.16,SW,215,4.0,8.0,87,0.00,,,0.01,Wunderground v.1.15,2013-07-17 04:15:00,
2013-07-16 23:20:00,78.5,74.3,30.16,West,263,3.0,8.0,87,0.00,,,0.01,Wunderground v.1.15,2013-07-17 04:20:00,
2013-07-16 23:25:00,78.4,74.2,30.16,SW,235,3.0,8.0,87,0.00,,,0.01,Wunderground v.1.15,2013-07-17 04:25:00,
2013-07-16 23:30:00,78.4,74.2,30.16,WSW,254,3.0,8.0,87,0.00,,,0.01,Wunderground v.1.15,2013-07-17 04:30:00,
2013-07-16 23:35:00,78.2,74.0,30.16,SSW,211,3.0,8.0,87,0.00,,,0.01,Wunderground v.1.15,2013-07-17 04:35:00,
2013-07-16 23:40:00,78.2,74.0,30.16,WSW,245,3.0,3.0,87,0.00,,,0.01,Wunderground v.1.15,2013-07-17 04:40:00,
2013-07-16 23:45:00,78.1,73.9,30.16,West,265,3.0,8.0,87,0.00,,,0.01,Wunderground v.1.15,2013-07-17 04:45:00,
2013-07-16 23:55:00,77.9,73.7,30.16,West,259,2.0,8.0,87,0.00,,,0.01,Wunderground v.1.15,2013-07-17 04:55:00,